Time;durP1;ratioP1;P1;durP2;ratioP2;P2;SDS_P1;SDS_P2;PMS_P1;PMS_P2;Temp;Humidity;BMP_temperature;BMP_pressure;BME280_temperature;BME280_humidity;BME280_pressure;Samples;Min_cycle;Max_cycle;Signal;HPM_P1;HPM_P2
2023/04/20 00:00:34;;;;;;;14.82;2.63;;;6.40;99.90;;;;;;5034767;28;20052;-81
2023/04/20 00:03:00;;;;;;;12.25;2.30;;;6.30;99.90;;;;;;5017968;28;20120;-81
2023/04/20 00:05:28;;;;;;;9.55;2.30;;;6.30;99.90;;;;;;5035072;28;20042;-80
2023/04/20 00:07:57;;;;;;;9.88;2.15;;;6.30;99.90;;;;;;5033634;28;20091;-80
2023/04/20 00:10:24;;;;;;;7.90;1.92;;;6.30;99.90;;;;;;5033923;28;20379;-80
2023/04/20 00:12:50;;;;;;;8.57;2.30;;;6.30;99.90;;;;;;5035399;28;20037;-80
2023/04/20 00:15:17;;;;;;;8.45;2.40;;;6.20;99.90;;;;;;5033927;28;20037;-81
2023/04/20 00:20:29;;;;;;;12.55;2.80;;;6.20;99.90;;;;;;5034233;28;20107;-80
2023/04/20 00:22:56;;;;;;;6.95;2.22;;;6.10;99.90;;;;;;5034045;28;20056;-81
2023/04/20 00:25:22;;;;;;;6.78;2.03;;;6.10;99.90;;;;;;5034004;28;20044;-81
2023/04/20 00:30:35;;;;;;;8.10;2.13;;;6.10;99.90;;;;;;5015121;28;20046;-80
2023/04/20 00:33:03;;;;;;;7.60;2.45;;;6.10;99.90;;;;;;4997205;28;20045;-80
2023/04/20 00:35:30;;;;;;;9.65;2.30;;;6.10;99.90;;;;;;5013759;28;20483;-80
2023/04/20 00:37:58;;;;;;;9.13;2.58;;;6.00;99.90;;;;;;5015096;28;20045;-81
2023/04/20 00:40:25;;;;;;;14.25;2.53;;;6.00;99.90;;;;;;5013340;28;20137;-81
2023/04/20 00:42:52;;;;;;;9.15;2.40;;;6.00;99.90;;;;;;5014035;28;20045;-80
2023/04/20 00:45:21;;;;;;;11.32;2.40;;;6.00;99.90;;;;;;5013751;28;20136;-80
2023/04/20 00:50:35;;;;;;;8.98;2.42;;;6.00;99.90;;;;;;5014938;28;20057;-81
2023/04/20 00:53:05;;;;;;;5.90;1.92;;;6.00;99.90;;;;;;5014101;28;20337;-80
2023/04/20 00:55:32;;;;;;;11.60;2.83;;;6.00;99.90;;;;;;5014620;28;20448;-81
2023/04/20 00:58:00;;;;;;;14.40;2.65;;;5.90;99.90;;;;;;5014782;28;20038;-80
2023/04/20 01:00:27;;;;;;;9.60;2.67;;;5.90;99.90;;;;;;5013538;28;20038;-80
2023/04/20 01:02:54;;;;;;;10.80;2.90;;;5.90;99.90;;;;;;5015114;28;20116;-79
2023/04/20 01:05:20;;;;;;;9.18;2.15;;;5.90;99.90;;;;;;5013668;28;20084;-80
2023/04/20 01:07:48;;;;;;;9.15;2.33;;;5.90;99.90;;;;;;5014323;28;20046;-79
2023/04/20 01:10:15;;;;;;;8.45;2.20;;;5.90;99.90;;;;;;5013947;28;20128;-79
2023/04/20 01:12:41;;;;;;;8.68;2.55;;;5.90;99.90;;;;;;4997485;28;20048;-79
2023/04/20 01:15:09;;;;;;;8.73;3.22;;;5.90;99.90;;;;;;5013658;28;20069;-79
2023/04/20 01:17:38;;;;;;;6.43;2.25;;;5.80;99.90;;;;;;5013853;28;20407;-80
2023/04/20 01:20:07;;;;;;;9.55;2.50;;;5.80;99.90;;;;;;5014026;28;20042;-79
2023/04/20 01:22:34;;;;;;;10.05;2.33;;;5.80;99.90;;;;;;5015769;28;20556;-80
2023/04/20 01:25:01;;;;;;;8.88;2.88;;;5.80;99.90;;;;;;5017176;28;20050;-79
2023/04/20 01:27:27;;;;;;;16.27;3.13;;;5.80;99.90;;;;;;5017407;28;20042;-80
2023/04/20 01:29:54;;;;;;;15.48;2.90;;;5.80;99.90;;;;;;5017399;28;20149;-79
2023/04/20 01:32:21;;;;;;;14.13;3.88;;;5.80;99.90;;;;;;5017275;28;20041;-80
2023/04/20 01:34:48;;;;;;;14.20;3.33;;;5.70;99.90;;;;;;5016122;28;20495;-80
2023/04/20 01:37:16;;;;;;;10.05;2.47;;;5.70;99.90;;;;;;5017290;28;20053;-80
2023/04/20 01:39:44;;;;;;;13.25;3.55;;;5.70;99.90;;;;;;5017499;28;20041;-80
2023/04/20 01:42:11;;;;;;;12.85;2.95;;;5.70;99.90;;;;;;5000948;28;20551;-80
2023/04/20 01:44:37;;;;;;;19.15;3.15;;;5.70;99.90;;;;;;5016670;28;20052;-80
2023/04/20 01:49:35;;;;;;;14.90;3.20;;;5.70;99.90;;;;;;5017906;28;20046;-80
2023/04/20 01:52:02;;;;;;;17.90;3.08;;;5.70;99.90;;;;;;5017007;28;20048;-80
2023/04/20 01:54:28;;;;;;;10.70;2.75;;;5.70;99.90;;;;;;5015765;28;20056;-79
2023/04/20 01:56:56;;;;;;;10.65;2.78;;;5.70;99.90;;;;;;5017679;28;20050;-80
2023/04/20 01:59:24;;;;;;;13.02;3.03;;;5.70;99.90;;;;;;5016902;28;20609;-80
2023/04/20 02:01:52;;;;;;;9.30;3.00;;;5.70;99.90;;;;;;5016011;28;20038;-80
2023/04/20 02:04:19;;;;;;;14.70;2.88;;;5.70;99.90;;;;;;5033468;28;20066;-79
2023/04/20 02:06:45;;;;;;;9.95;3.53;;;5.60;99.90;;;;;;5032145;28;20045;-79
2023/04/20 02:09:14;;;;;;;12.48;3.05;;;5.70;99.90;;;;;;5033194;28;20049;-79
2023/04/20 02:11:41;;;;;;;14.10;3.47;;;5.60;99.90;;;;;;5033002;28;20042;-79
2023/04/20 02:14:08;;;;;;;12.98;3.20;;;5.60;99.90;;;;;;5032067;28;20038;-79
2023/04/20 02:16:35;;;;;;;10.90;2.95;;;5.60;99.90;;;;;;5016261;28;20070;-79
2023/04/20 02:19:04;;;;;;;9.68;3.20;;;5.60;99.90;;;;;;5017361;28;20042;-79
2023/04/20 02:21:30;;;;;;;9.82;2.30;;;5.60;99.90;;;;;;5015503;28;20038;-79
2023/04/20 02:23:57;;;;;;;16.15;3.08;;;5.50;99.90;;;;;;5033021;28;20486;-79
2023/04/20 02:26:26;;;;;;;9.25;3.13;;;5.60;99.90;;;;;;5015105;28;20140;-79
2023/04/20 02:28:52;;;;;;;16.13;3.33;;;5.60;99.90;;;;;;5017090;28;20049;-80
2023/04/20 02:31:19;;;;;;;11.45;3.53;;;5.60;99.90;;;;;;5017174;28;20038;-80
2023/04/20 02:33:48;;;;;;;19.17;3.60;;;5.60;99.90;;;;;;5031287;28;20416;-80
2023/04/20 02:36:15;;;;;;;15.80;4.60;;;5.60;99.90;;;;;;5016872;28;20042;-80
2023/04/20 02:38:42;;;;;;;20.05;3.22;;;5.60;99.90;;;;;;5016972;28;20176;-80
2023/04/20 02:41:08;;;;;;;11.73;3.33;;;5.50;99.90;;;;;;5038856;28;20159;-80
2023/04/20 02:43:35;;;;;;;17.58;3.67;;;5.50;99.90;;;;;;5039075;28;20037;-80
2023/04/20 02:46:03;;;;;;;10.95;3.30;;;5.50;99.90;;;;;;5038760;28;20051;-80
2023/04/20 02:48:30;;;;;;;17.25;4.05;;;5.50;99.90;;;;;;5038094;28;20391;-80
2023/04/20 02:50:57;;;;;;;12.23;3.45;;;5.50;99.90;;;;;;5022954;28;20478;-80
2023/04/20 02:53:27;;;;;;;11.75;3.42;;;5.50;99.90;;;;;;5038036;28;20144;-80
2023/04/20 02:56:08;;;;;;;10.05;3.45;;;5.50;99.90;;;;;;5038680;28;20383;-80
2023/04/20 02:58:43;;;;;;;14.25;3.30;;;5.50;99.90;;;;;;5038862;28;20110;-80
2023/04/20 03:01:16;;;;;;;22.25;4.18;;;5.50;99.90;;;;;;5038095;28;20423;-80
2023/04/20 03:03:45;;;;;;;18.90;4.13;;;5.50;99.90;;;;;;5038707;28;20041;-80
2023/04/20 03:06:13;;;;;;;17.05;3.85;;;5.40;99.90;;;;;;5038483;28;20041;-80
2023/04/20 03:08:46;;;;;;;14.40;3.63;;;5.40;99.90;;;;;;5037819;28;20052;-80
2023/04/20 03:11:41;;;;;;;11.02;3.25;;;5.40;99.90;;;;;;5019778;28;20046;-80
2023/04/20 03:14:12;;;;;;;10.02;3.72;;;5.40;99.90;;;;;;5037717;28;20045;-80
2023/04/20 03:16:39;;;;;;;17.27;4.15;;;5.40;99.90;;;;;;5038296;28;20379;-80
2023/04/20 03:21:52;;;;;;;15.52;3.72;;;5.40;99.90;;;;;;5037637;28;20053;-80
2023/04/20 03:24:19;;;;;;;15.23;3.67;;;5.40;99.90;;;;;;5038283;28;20103;-80
2023/04/20 03:26:46;;;;;;;12.07;3.55;;;5.40;99.90;;;;;;5054976;28;20045;-80
2023/04/20 03:29:18;;;;;;;18.35;4.32;;;5.40;99.90;;;;;;5038312;28;20445;-80
2023/04/20 03:31:45;;;;;;;19.52;3.97;;;5.40;99.90;;;;;;5038207;28;20132;-80
2023/04/20 03:34:12;;;;;;;14.40;3.75;;;5.40;99.90;;;;;;5037416;28;20128;-79
2023/04/20 03:36:39;;;;;;;15.02;4.07;;;5.40;99.90;;;;;;5037957;28;20423;-79
2023/04/20 03:41:37;;;;;;;19.95;4.15;;;5.40;99.90;;;;;;5039175;28;20077;-79
2023/04/20 03:44:04;;;;;;;15.05;4.20;;;5.40;99.90;;;;;;5035547;28;20124;-79
2023/04/20 03:46:30;;;;;;;15.40;4.53;;;5.30;99.90;;;;;;5032862;28;20052;-79
2023/04/20 03:51:27;;;;;;;18.67;4.68;;;5.40;99.90;;;;;;5035849;28;20051;-79
2023/04/20 03:53:53;;;;;;;20.35;3.72;;;5.30;99.90;;;;;;5017518;28;20041;-80
2023/04/20 03:56:20;;;;;;;13.10;4.32;;;5.40;99.90;;;;;;5034092;28;20060;-79
2023/04/20 03:58:48;;;;;;;25.40;4.93;;;5.40;99.90;;;;;;5034338;28;20411;-81
2023/04/20 04:01:25;;;;;;;15.38;4.20;;;5.40;99.90;;;;;;5033469;28;20045;-79
2023/04/20 04:03:52;;;;;;;12.05;3.70;;;5.40;99.90;;;;;;5017965;28;20037;-79
2023/04/20 04:06:19;;;;;;;19.35;4.55;;;5.40;99.90;;;;;;5034153;28;20060;-79
2023/04/20 04:11:16;;;;;;;14.38;4.00;;;5.40;99.90;;;;;;5034095;28;20073;-78
2023/04/20 04:13:43;;;;;;;16.40;4.40;;;5.40;99.90;;;;;;5033293;28;20041;-79
2023/04/20 04:16:09;;;;;;;11.77;4.13;;;5.40;99.90;;;;;;5033581;28;20468;-79
2023/04/20 04:18:36;;;;;;;16.55;4.25;;;5.40;99.90;;;;;;5033996;28;20456;-79
2023/04/20 04:21:09;;;;;;;16.58;3.95;;;5.40;99.90;;;;;;5017482;28;20083;-79
2023/04/20 04:23:37;;;;;;;14.65;4.00;;;5.40;99.90;;;;;;5033977;28;20132;-79
2023/04/20 04:26:17;;;;;;;19.58;4.63;;;5.40;99.90;;;;;;5033772;28;20053;-80
2023/04/20 04:28:44;;;;;;;20.55;5.22;;;5.40;99.90;;;;;;5033228;28;20084;-80
2023/04/20 04:31:20;;;;;;;14.93;4.20;;;5.40;99.90;;;;;;5018644;28;20057;-80
2023/04/20 04:33:48;;;;;;;15.25;4.35;;;5.40;99.90;;;;;;5032948;28;20052;-79
2023/04/20 04:36:25;;;;;;;21.35;4.70;;;5.40;99.90;;;;;;5033538;28;20129;-79
2023/04/20 04:41:47;;;;;;;13.27;4.40;;;5.30;99.90;;;;;;5032908;28;20144;-79
2023/04/20 04:44:27;;;;;;;19.38;4.65;;;5.30;99.90;;;;;;5033741;28;20514;-79
2023/04/20 04:46:54;;;;;;;11.05;3.97;;;5.30;99.90;;;;;;5032911;28;20053;-79
2023/04/20 04:49:25;;;;;;;16.92;3.83;;;5.20;99.90;;;;;;5017776;28;20041;-79
2023/04/20 04:51:52;;;;;;;14.77;4.68;;;5.20;99.90;;;;;;5033966;28;20037;-79
2023/04/20 04:54:18;;;;;;;11.38;4.13;;;5.20;99.90;;;;;;5033569;28;20057;-79
2023/04/20 04:56:45;;;;;;;17.45;4.80;;;5.20;99.90;;;;;;5035131;28;20037;-79
2023/04/20 04:59:13;;;;;;;14.63;4.13;;;5.10;99.90;;;;;;5038761;28;20034;-79
2023/04/20 05:01:40;;;;;;;16.85;4.95;;;5.10;99.90;;;;;;5037080;28;20357;-79
2023/04/20 05:04:06;;;;;;;15.48;4.70;;;5.10;99.90;;;;;;5038577;28;20052;-79
2023/04/20 05:06:33;;;;;;;14.48;3.70;;;5.10;99.90;;;;;;5036703;28;20087;-79
2023/04/20 05:09:00;;;;;;;13.43;4.75;;;5.10;99.90;;;;;;5038464;28;20041;-81
2023/04/20 05:11:27;;;;;;;12.77;3.83;;;5.10;99.90;;;;;;5038649;28;20133;-79
2023/04/20 05:13:53;;;;;;;19.40;4.40;;;5.10;99.90;;;;;;5037577;28;20041;-79
2023/04/20 05:16:20;;;;;;;11.50;3.58;;;5.10;99.90;;;;;;5038196;28;20116;-79
2023/04/20 05:18:49;;;;;;;10.70;3.47;;;5.10;99.90;;;;;;5038737;28;20037;-79
2023/04/20 05:21:16;;;;;;;12.25;4.22;;;5.00;99.90;;;;;;5037775;28;20137;-79
2023/04/20 05:23:43;;;;;;;25.35;4.82;;;5.10;99.90;;;;;;5037338;28;20049;-79
2023/04/20 05:26:09;;;;;;;15.50;4.30;;;5.10;99.90;;;;;;5038082;28;20138;-79
2023/04/20 05:28:36;;;;;;;11.98;3.88;;;5.10;99.90;;;;;;5037310;28;20054;-80
2023/04/20 05:31:03;;;;;;;15.70;3.92;;;5.10;99.90;;;;;;5037265;28;20053;-80
2023/04/20 05:33:29;;;;;;;13.98;3.75;;;5.10;99.90;;;;;;5037257;28;20107;-80
2023/04/20 05:35:56;;;;;;;16.15;4.68;;;5.20;99.90;;;;;;5037124;28;20049;-80
2023/04/20 05:38:24;;;;;;;18.95;4.57;;;5.20;99.90;;;;;;5037964;28;20037;-80
2023/04/20 05:40:51;;;;;;;18.92;4.60;;;5.20;99.90;;;;;;5046062;28;20387;-80
2023/04/20 05:43:18;;;;;;;15.82;4.95;;;5.30;99.90;;;;;;5057927;28;20076;-79
2023/04/20 05:45:45;;;;;;;15.10;4.25;;;5.40;99.90;;;;;;5057791;28;20055;-80
2023/04/20 05:48:13;;;;;;;27.90;4.95;;;5.50;99.90;;;;;;5039381;28;20107;-80
2023/04/20 05:50:39;;;;;;;10.15;4.18;;;5.50;99.90;;;;;;5040346;28;20364;-80
2023/04/20 05:53:06;;;;;;;15.40;3.60;;;5.60;99.90;;;;;;5056888;28;20048;-79
2023/04/20 05:55:33;;;;;;;11.07;4.00;;;5.60;99.90;;;;;;5039810;28;20046;-79
2023/04/20 05:58:00;;;;;;;27.35;5.03;;;5.70;99.90;;;;;;5039938;28;20046;-79
2023/04/20 06:00:27;;;;;;;13.50;3.90;;;5.80;99.90;;;;;;5039508;28;20196;-80
2023/04/20 06:02:54;;;;;;;13.48;4.25;;;5.80;99.90;;;;;;5040261;28;20454;-80
2023/04/20 06:05:21;;;;;;;14.82;4.40;;;5.90;99.90;;;;;;5057289;28;20086;-80
2023/04/20 06:07:49;;;;;;;13.63;4.78;;;6.00;99.90;;;;;;5038501;28;20546;-80
2023/04/20 06:10:15;;;;;;;15.13;4.60;;;6.10;99.90;;;;;;5057216;28;20057;-79
2023/04/20 06:12:42;;;;;;;11.30;3.70;;;6.20;99.90;;;;;;5057220;28;20371;-79
2023/04/20 06:15:09;;;;;;;13.05;4.35;;;6.20;99.90;;;;;;5038857;28;20041;-79
2023/04/20 06:17:39;;;;;;;15.00;4.55;;;6.40;99.90;;;;;;5057100;28;20041;-79
2023/04/20 06:20:06;;;;;;;13.98;4.75;;;6.50;99.90;;;;;;5039008;28;20084;-79
2023/04/20 06:22:33;;;;;;;15.20;4.50;;;6.70;99.90;;;;;;5039403;28;20451;-79
2023/04/20 06:24:59;;;;;;;16.58;4.47;;;6.80;99.90;;;;;;5039453;28;20128;-79
2023/04/20 06:27:28;;;;;;;16.52;4.25;;;6.90;99.90;;;;;;5056127;28;20067;-79
2023/04/20 06:29:55;;;;;;;20.95;5.57;;;7.00;99.90;;;;;;5057211;28;20434;-79
2023/04/20 06:32:22;;;;;;;14.68;4.18;;;7.10;99.90;;;;;;5039687;28;20044;-79
2023/04/20 06:34:49;;;;;;;16.75;5.13;;;7.30;99.90;;;;;;5038146;28;20064;-80
2023/04/20 06:40:09;;;;;;;21.02;4.60;;;7.50;99.90;;;;;;5055947;28;20537;-80
2023/04/20 06:42:36;;;;;;;10.90;3.70;;;7.70;99.90;;;;;;5056680;28;20123;-78
2023/04/20 06:45:03;;;;;;;17.27;5.38;;;7.80;99.90;;;;;;5039290;28;20129;-79
2023/04/20 06:47:33;;;;;;;16.13;4.30;;;7.90;99.90;;;;;;5055732;28;20041;-79
2023/04/20 06:49:59;;;;;;;16.98;4.63;;;8.00;99.90;;;;;;5056450;28;20119;-79
2023/04/20 06:52:26;;;;;;;15.57;4.25;;;8.10;99.90;;;;;;5036447;28;20475;-79
2023/04/20 06:54:53;;;;;;;15.55;4.47;;;8.20;99.90;;;;;;5035291;28;20444;-79
2023/04/20 06:57:20;;;;;;;12.93;5.00;;;8.40;99.90;;;;;;5036398;28;20035;-80
2023/04/20 06:59:46;;;;;;;12.60;3.92;;;8.50;99.90;;;;;;5017997;28;20038;-79
2023/04/20 07:02:15;;;;;;;11.68;4.10;;;8.50;99.90;;;;;;5019416;28;20471;-80
2023/04/20 07:04:42;;;;;;;14.85;4.32;;;8.60;99.90;;;;;;5021118;28;20041;-80
2023/04/20 07:09:55;;;;;;;10.45;3.75;;;8.80;99.90;;;;;;5018713;28;20383;-79
2023/04/20 07:12:22;;;;;;;10.10;3.92;;;9.00;99.90;;;;;;5018913;28;20048;-80
2023/04/20 07:14:49;;;;;;;10.68;3.80;;;9.10;99.90;;;;;;5017458;28;20148;-80
2023/04/20 07:17:18;;;;;;;11.75;3.95;;;9.30;99.90;;;;;;5037009;28;20052;-80
2023/04/20 07:19:44;;;;;;;16.48;4.13;;;9.40;99.90;;;;;;5016704;28;20052;-81
2023/04/20 07:22:11;;;;;;;15.25;4.55;;;9.50;99.90;;;;;;5035743;28;20041;-81
2023/04/20 07:24:38;;;;;;;17.80;4.13;;;9.60;99.90;;;;;;5016919;28;20376;-80
2023/04/20 07:27:07;;;;;;;13.43;3.90;;;9.70;99.90;;;;;;5001285;28;20045;-80
2023/04/20 07:29:33;;;;;;;16.02;4.78;;;9.80;99.90;;;;;;5018175;28;20107;-80
2023/04/20 07:32:00;;;;;;;17.23;4.40;;;9.90;99.90;;;;;;5018370;28;20443;-79
2023/04/20 07:34:27;;;;;;;14.90;4.05;;;10.00;99.90;;;;;;5017107;28;20099;-79
2023/04/20 07:36:53;;;;;;;12.88;4.00;;;10.20;99.90;;;;;;5018192;28;20041;-80
2023/04/20 07:39:20;;;;;;;12.57;3.83;;;10.20;99.90;;;;;;5018106;28;20376;-80
2023/04/20 07:41:47;;;;;;;10.27;3.80;;;10.40;99.90;;;;;;5030586;28;20061;-83
2023/04/20 07:44:13;;;;;;;14.00;5.57;;;10.50;99.90;;;;;;5035373;28;20458;-82
2023/04/20 07:46:40;;;;;;;14.25;3.90;;;10.70;99.90;;;;;;5047492;28;20082;-79
2023/04/20 07:49:08;;;;;;;14.73;4.47;;;10.80;99.90;;;;;;5017830;28;20132;-82
2023/04/20 07:51:35;;;;;;;16.33;4.43;;;10.90;99.90;;;;;;5024360;28;20136;-81
2023/04/20 07:54:02;;;;;;;14.40;3.72;;;11.00;99.90;;;;;;5033149;28;20048;-79
2023/04/20 07:56:28;;;;;;;16.00;4.70;;;11.10;99.90;;;;;;5017627;28;20041;-80
2023/04/20 07:58:55;;;;;;;16.58;5.00;;;11.20;99.90;;;;;;5013132;28;20049;-81
2023/04/20 08:01:22;;;;;;;10.23;3.97;;;11.20;99.90;;;;;;5011754;28;20443;-81
2023/04/20 08:03:48;;;;;;;15.18;4.55;;;11.30;99.90;;;;;;5014916;28;20103;-81
2023/04/20 08:06:15;;;;;;;18.70;4.22;;;11.40;99.90;;;;;;5013584;28;20526;-82
2023/04/20 08:08:42;;;;;;;10.20;4.07;;;11.50;99.90;;;;;;4995799;28;20066;-82
2023/04/20 08:11:09;;;;;;;9.95;3.70;;;11.50;99.90;;;;;;5013966;28;20045;-81
2023/04/20 08:13:36;;;;;;;17.13;4.22;;;11.60;99.90;;;;;;5012338;28;20488;-81
2023/04/20 08:16:02;;;;;;;16.83;4.65;;;11.70;99.90;;;;;;5013397;28;20441;-80
2023/04/20 08:18:31;;;;;;;15.50;5.03;;;11.80;99.90;;;;;;5014122;28;20041;-80
2023/04/20 08:20:58;;;;;;;15.80;4.75;;;11.90;99.90;;;;;;5013404;28;20076;-82
2023/04/20 08:23:26;;;;;;;16.63;5.38;;;12.00;99.90;;;;;;4997737;28;20459;-82
2023/04/20 08:25:53;;;;;;;16.17;4.00;;;12.00;99.90;;;;;;5014898;28;20044;-82
2023/04/20 08:28:22;;;;;;;12.85;3.88;;;12.10;99.90;;;;;;4998654;28;20604;-80
2023/04/20 08:30:59;;;;;;;15.73;4.32;;;12.20;99.90;;;;;;5023332;28;20456;-81
2023/04/20 08:33:26;;;;;;;13.88;4.30;;;12.40;99.90;;;;;;5029243;28;20041;-85
2023/04/20 08:35:53;;;;;;;10.98;4.05;;;12.50;99.90;;;;;;5016699;28;20049;-85
2023/04/20 08:38:21;;;;;;;12.05;3.45;;;12.50;99.90;;;;;;5017061;28;20041;-83
2023/04/20 08:40:59;;;;;;;10.68;3.70;;;12.60;99.90;;;;;;5032063;28;20122;-81
2023/04/20 08:43:26;;;;;;;11.20;3.45;;;12.70;99.90;;;;;;5017078;28;20061;-82
2023/04/20 08:45:53;;;;;;;11.63;3.33;;;12.80;99.90;;;;;;5033015;28;20477;-81
2023/04/20 08:48:21;;;;;;;12.98;3.33;;;12.90;99.90;;;;;;5032570;28;20053;-81
2023/04/20 08:50:47;;;;;;;11.27;2.97;;;13.00;99.90;;;;;;5033976;28;20041;-82
2023/04/20 08:53:14;;;;;;;11.60;3.03;;;13.10;99.90;;;;;;5011997;28;20061;-81
2023/04/20 08:55:41;;;;;;;8.73;2.63;;;13.10;99.90;;;;;;5013048;28;20042;-82
2023/04/20 08:58:09;;;;;;;9.38;2.60;;;13.20;99.90;;;;;;5014702;28;20038;-85
2023/04/20 09:00:36;;;;;;;7.40;2.53;;;13.20;99.90;;;;;;5019769;28;20124;-84
2023/04/20 09:03:02;;;;;;;11.80;3.05;;;13.30;99.90;;;;;;5016935;28;20048;-85
2023/04/20 09:05:30;;;;;;;9.55;2.72;;;13.30;99.90;;;;;;4997213;28;20045;-86
2023/04/20 09:11:00;;;;;;;8.45;2.20;;;13.00;99.90;;;;;;5014475;28;20026;-82
2023/04/20 09:13:28;;;;;;;7.28;2.97;;;13.00;99.90;;;;;;5012935;28;20053;-84
2023/04/20 09:15:54;;;;;;;15.95;2.83;;;13.10;99.90;;;;;;5013715;28;20038;-82
2023/04/20 09:18:23;;;;;;;11.13;1.92;;;13.20;99.90;;;;;;5013776;28;20160;-85
2023/04/20 09:20:50;;;;;;;10.70;2.65;;;13.40;99.90;;;;;;5015804;28;20056;-83
2023/04/20 09:23:18;;;;;;;6.45;1.90;;;13.60;99.40;;;;;;5015691;28;20034;-83
2023/04/20 09:25:45;;;;;;;5.20;1.75;;;13.40;94.30;;;;;;5033151;28;20098;-83
2023/04/20 09:30:57;;;;;;;7.90;2.33;;;13.20;95.00;;;;;;5033746;28;20144;-85
2023/04/20 09:33:24;;;;;;;7.55;2.00;;;13.40;95.90;;;;;;5016521;28;20132;-85
2023/04/20 09:35:51;;;;;;;6.65;2.20;;;13.60;96.00;;;;;;5017457;28;20064;-86
2023/04/20 09:38:19;;;;;;;5.22;1.92;;;13.90;95.60;;;;;;5017006;28;20037;-85
2023/04/20 09:40:45;;;;;;;7.32;2.08;;;14.10;94.40;;;;;;5016231;28;20053;-87
2023/04/20 09:43:14;;;;;;;4.57;1.67;;;14.40;93.40;;;;;;5033914;28;20041;-85
2023/04/20 09:45:41;;;;;;;10.20;2.05;;;14.40;91.50;;;;;;5037004;28;20166;-88
2023/04/20 09:50:57;;;;;;;6.93;1.77;;;14.30;91.20;;;;;;5037318;28;20049;-87
2023/04/20 09:53:25;;;;;;;8.48;2.25;;;14.30;90.80;;;;;;5036197;28;20098;-84
2023/04/20 09:55:52;;;;;;;6.68;2.33;;;14.50;91.70;;;;;;5036726;28;20063;-85
2023/04/20 10:00:49;;;;;;;8.10;1.90;;;14.60;87.70;;;;;;5036294;28;20502;-86
2023/04/20 10:03:17;;;;;;;5.35;1.92;;;14.80;90.60;;;;;;5037343;28;20127;-87
2023/04/20 10:05:44;;;;;;;5.07;1.95;;;15.00;87.00;;;;;;5020620;28;20383;-88
2023/04/20 10:08:12;;;;;;;6.40;1.90;;;15.00;87.70;;;;;;5036204;28;20041;-88
2023/04/20 10:10:39;;;;;;;8.68;2.15;;;15.20;86.00;;;;;;5036907;28;20455;-85
2023/04/20 10:13:06;;;;;;;9.70;2.30;;;15.00;83.10;;;;;;5019643;28;20347;-88
2023/04/20 10:15:35;;;;;;;6.53;1.67;;;14.80;82.90;;;;;;5020161;28;20076;-86
2023/04/20 10:20:49;;;;;;;7.95;2.05;;;14.70;87.70;;;;;;5036892;28;20131;-87
2023/04/20 10:23:18;;;;;;;5.90;2.03;;;14.80;85.90;;;;;;5036484;28;20053;-85
2023/04/20 10:25:46;;;;;;;6.63;2.15;;;14.70;84.40;;;;;;5036798;28;20041;-85
2023/04/20 10:30:58;;;;;;;13.13;2.17;;;15.10;88.00;;;;;;5036269;28;20042;-87
2023/04/20 10:33:25;;;;;;;5.68;2.17;;;15.50;84.10;;;;;;5035642;28;20060;-86
2023/04/20 10:35:53;;;;;;;5.95;2.15;;;16.00;83.30;;;;;;5036800;28;20057;-84
2023/04/20 10:38:21;;;;;;;7.65;2.40;;;16.10;82.00;;;;;;5035745;28;20037;-84
2023/04/20 10:40:48;;;;;;;10.27;1.88;;;16.30;84.10;;;;;;5035398;28;20045;-84
2023/04/20 10:43:15;;;;;;;6.97;2.50;;;16.10;76.10;;;;;;5035915;28;20064;-84
2023/04/20 10:45:42;;;;;;;6.57;2.20;;;16.20;79.70;;;;;;5035555;28;20050;-83
2023/04/20 10:48:11;;;;;;;8.05;1.98;;;16.90;81.30;;;;;;5018711;28;20049;-84
2023/04/20 10:50:37;;;;;;;8.88;1.95;;;17.10;74.80;;;;;;5036732;28;20042;-82
2023/04/20 10:53:15;;;;;;;6.30;1.90;;;17.00;74.90;;;;;;5034593;28;20049;-85
2023/04/20 10:56:26;;;;;;;5.97;1.80;;;16.90;74.10;;;;;;4997290;28;20176;-84
2023/04/20 10:58:54;;;;;;;7.75;2.10;;;17.50;75.70;;;;;;5035473;28;20100;-85
2023/04/20 11:01:20;;;;;;;7.35;1.95;;;17.70;73.60;;;;;;5018633;28;20045;-85
2023/04/20 11:03:47;;;;;;;6.32;2.22;;;18.00;72.00;;;;;;5019130;28;20522;-83
2023/04/20 11:06:14;;;;;;;6.22;1.95;;;18.40;73.40;;;;;;5035414;28;20049;-85
2023/04/20 11:08:41;;;;;;;9.20;1.92;;;17.90;68.60;;;;;;5034877;28;20156;-84
2023/04/20 11:11:08;;;;;;;6.63;1.92;;;18.40;70.30;;;;;;5035569;28;20380;-84
2023/04/20 11:13:36;;;;;;;6.13;1.80;;;19.00;68.70;;;;;;5034204;28;20051;-84
2023/04/20 11:16:03;;;;;;;7.07;1.85;;;19.10;67.00;;;;;;5035221;28;20052;-85
2023/04/20 11:21:15;;;;;;;5.70;1.75;;;18.00;66.70;;;;;;5015326;28;20473;-84
2023/04/20 11:23:43;;;;;;;9.02;2.10;;;17.40;66.90;;;;;;5015459;28;20057;-85
2023/04/20 11:26:10;;;;;;;7.53;1.92;;;17.20;67.30;;;;;;5016543;28;20069;-86
2023/04/20 11:28:38;;;;;;;8.32;2.17;;;17.60;65.90;;;;;;5014774;28;20050;-84
2023/04/20 11:31:05;;;;;;;12.43;2.20;;;17.30;67.00;;;;;;5015241;28;20042;-83
2023/04/20 11:33:32;;;;;;;6.57;2.03;;;17.40;69.50;;;;;;4997669;28;20464;-85
2023/04/20 11:36:01;;;;;;;9.60;2.33;;;17.40;67.30;;;;;;5016568;28;20045;-86
2023/04/20 11:41:03;;;;;;;4.93;2.00;;;18.40;67.20;;;;;;5026908;28;20499;-85
2023/04/20 11:43:30;;;;;;;8.30;1.95;;;18.20;66.80;;;;;;5035337;28;20049;-87
2023/04/20 11:45:57;;;;;;;7.82;2.28;;;18.40;66.80;;;;;;5035004;28;20371;-85
2023/04/20 11:48:30;;;;;;;4.85;1.80;;;18.60;65.30;;;;;;5017812;28;20045;-88
2023/04/20 11:50:56;;;;;;;6.68;2.03;;;18.30;64.30;;;;;;5017818;28;20084;-87
2023/04/20 11:53:23;;;;;;;5.95;1.85;;;18.00;66.90;;;;;;5034298;28;20362;-83
2023/04/20 11:55:49;;;;;;;5.10;2.17;;;18.30;66.20;;;;;;5017894;28;20046;-85
2023/04/20 11:58:18;;;;;;;5.88;2.00;;;17.80;64.70;;;;;;5035321;28;20042;-84
2023/04/20 12:00:45;;;;;;;6.03;1.65;;;17.80;65.20;;;;;;5034288;28;20056;-86
2023/04/20 12:03:12;;;;;;;7.22;1.90;;;18.20;64.60;;;;;;5018852;28;20053;-85
2023/04/20 12:05:39;;;;;;;5.72;1.52;;;18.00;62.90;;;;;;5034445;28;20056;-85
2023/04/20 12:10:35;;;;;;;5.90;1.70;;;17.30;63.50;;;;;;5034674;28;20073;-88
2023/04/20 12:13:02;;;;;;;6.13;1.90;;;17.00;63.30;;;;;;5035612;28;20050;-85
2023/04/20 12:15:29;;;;;;;5.65;1.80;;;17.50;65.20;;;;;;5017638;28;20046;-85
2023/04/20 12:17:57;;;;;;;4.05;1.58;;;18.70;65.50;;;;;;5034292;28;20124;-86
2023/04/20 12:20:24;;;;;;;6.30;1.63;;;18.30;60.80;;;;;;5014159;28;20140;-82
2023/04/20 12:22:50;;;;;;;7.90;1.65;;;18.20;63.60;;;;;;5014607;28;20061;-86
2023/04/20 12:25:17;;;;;;;8.25;1.83;;;17.60;61.90;;;;;;5014439;28;20050;-84
2023/04/20 12:30:29;;;;;;;13.68;1.60;;;19.00;60.30;;;;;;5015564;28;20371;-86
2023/04/20 12:32:56;;;;;;;7.32;1.80;;;19.60;61.00;;;;;;5014537;28;20068;-86
2023/04/20 12:35:23;;;;;;;5.65;1.70;;;20.10;59.40;;;;;;4997167;28;20392;-83
2023/04/20 12:37:49;;;;;;;5.93;1.80;;;20.20;57.00;;;;;;5014497;28;20376;-85
2023/04/20 12:40:16;;;;;;;9.98;2.38;;;20.60;59.10;;;;;;5017245;28;20145;-84
2023/04/20 12:42:43;;;;;;;5.38;1.80;;;20.60;56.10;;;;;;5033782;28;20053;-83
2023/04/20 12:45:09;;;;;;;6.10;2.05;;;20.00;57.10;;;;;;5033487;28;20040;-87
2023/04/20 12:47:36;;;;;;;8.15;1.90;;;19.30;56.80;;;;;;5033659;28;20037;-84
2023/04/20 12:50:03;;;;;;;5.45;1.65;;;18.60;56.60;;;;;;5033764;28;20056;-82
2023/04/20 12:52:29;;;;;;;9.60;1.60;;;17.90;57.00;;;;;;5034182;28;20041;-87
2023/04/20 12:54:56;;;;;;;5.43;1.67;;;17.50;57.70;;;;;;5032458;28;20053;-83
2023/04/20 12:57:23;;;;;;;5.03;1.58;;;17.80;59.00;;;;;;5033538;28;20037;-85
2023/04/20 12:59:49;;;;;;;5.97;1.88;;;18.70;59.50;;;;;;5032802;28;20045;-85
2023/04/20 13:02:16;;;;;;;5.90;1.83;;;19.00;58.90;;;;;;5033901;28;20038;-85
2023/04/20 13:04:44;;;;;;;5.25;1.52;;;19.10;56.90;;;;;;5016996;28;20081;-86
2023/04/20 13:07:11;;;;;;;5.25;1.48;;;18.80;58.50;;;;;;5032711;28;20140;-84
2023/04/20 13:09:37;;;;;;;5.30;1.70;;;18.20;59.40;;;;;;5033733;28;20153;-84
2023/04/20 13:12:04;;;;;;;6.28;1.65;;;17.80;58.30;;;;;;5033633;28;20052;-86
2023/04/20 13:14:31;;;;;;;4.50;1.50;;;17.70;60.00;;;;;;5033270;28;20037;-85
2023/04/20 13:17:00;;;;;;;5.25;1.58;;;17.90;57.90;;;;;;5017400;28;20068;-85
2023/04/20 13:19:27;;;;;;;8.02;1.63;;;17.40;57.90;;;;;;5037699;28;20153;-85
2023/04/20 13:21:54;;;;;;;17.90;2.15;;;17.20;60.60;;;;;;5037291;28;20372;-85
2023/04/20 13:24:21;;;;;;;4.90;1.60;;;16.90;58.80;;;;;;5037998;28;20464;-86
2023/04/20 13:26:47;;;;;;;6.25;1.55;;;17.60;59.10;;;;;;5037369;28;20053;-85
2023/04/20 13:29:14;;;;;;;5.68;1.70;;;18.30;58.10;;;;;;5037570;28;20045;-84
2023/04/20 13:31:41;;;;;;;6.93;1.80;;;18.50;56.70;;;;;;5037017;28;20041;-82
2023/04/20 13:34:07;;;;;;;4.90;1.50;;;19.00;56.10;;;;;;5036423;28;20045;-86
2023/04/20 13:36:34;;;;;;;6.63;1.60;;;19.40;55.50;;;;;;5037702;28;20045;-85
2023/04/20 13:39:01;;;;;;;9.55;1.85;;;19.40;53.30;;;;;;5037156;28;20460;-87
2023/04/20 13:41:27;;;;;;;6.18;1.95;;;19.70;55.00;;;;;;5019925;28;20049;-80
2023/04/20 13:43:54;;;;;;;5.47;1.60;;;20.00;52.50;;;;;;5037004;28;20141;-83